Time;durP1;ratioP1;P1;durP2;ratioP2;P2;SDS_P1;SDS_P2;PMS_P1;PMS_P2;Temp;Humidity;BMP_temperature;BMP_pressure;BME280_temperature;BME280_humidity;BME280_pressure;Samples;Min_cycle;Max_cycle;Signal;HPM_P1;HPM_P2
2023/08/07 00:00:59;;;;;;;0.10;0.10;;;;;;;13.25;100.00;98659.94;5094821;28;20199;-56
2023/08/07 00:03:47;;;;;;;0.10;0.10;;;;;;;13.31;100.00;98669.19;5096174;28;20195;-56
2023/08/07 00:06:34;;;;;;;0.10;0.10;;;;;;;13.30;100.00;98672.84;5095904;28;20199;-56
2023/08/07 00:09:21;;;;;;;0.10;0.10;;;;;;;13.29;100.00;98665.84;5095892;28;20672;-56
2023/08/07 00:12:07;;;;;;;0.10;0.10;;;;;;;13.20;100.00;98670.09;5096036;28;20284;-56
2023/08/07 00:14:56;;;;;;;0.10;0.10;;;;;;;13.22;100.00;98675.28;5095802;28;20199;-56
2023/08/07 00:17:45;;;;;;;0.10;0.10;;;;;;;13.16;100.00;98664.16;5094679;28;20202;-56
2023/08/07 00:20:32;;;;;;;0.10;0.10;;;;;;;13.17;100.00;98673.81;5095878;28;20198;-56
2023/08/07 00:23:19;;;;;;;0.10;0.10;;;;;;;13.16;100.00;98673.97;5095711;28;20673;-56
2023/08/07 00:26:05;;;;;;;0.10;0.10;;;;;;;13.17;100.00;98676.50;5095847;28;20190;-56
2023/08/07 00:28:52;;;;;;;0.10;0.10;;;;;;;13.15;100.00;98686.41;5095760;28;20194;-56
2023/08/07 00:31:39;;;;;;;0.10;0.10;;;;;;;13.18;100.00;98688.81;5093209;28;20202;-56
2023/08/07 00:34:28;;;;;;;0.10;0.10;;;;;;;13.10;100.00;98682.44;5095670;28;20195;-56
2023/08/07 00:37:15;;;;;;;0.10;0.10;;;;;;;13.08;100.00;98692.34;5094686;28;20333;-56
2023/08/07 00:40:02;;;;;;;0.10;0.10;;;;;;;13.10;100.00;98685.94;5094416;28;20199;-56
2023/08/07 00:42:48;;;;;;;0.10;0.10;;;;;;;13.12;100.00;98697.31;5095431;28;20206;-56
2023/08/07 00:45:38;;;;;;;0.10;0.10;;;;;;;13.06;100.00;98695.13;5095461;28;20194;-56
2023/08/07 00:48:25;;;;;;;0.10;0.10;;;;;;;13.08;100.00;98690.53;5095277;28;20249;-56
2023/08/07 00:51:13;;;;;;;0.10;0.10;;;;;;;13.11;100.00;98703.56;5094958;28;20223;-56
2023/08/07 00:54:04;;;;;;;0.10;0.10;;;;;;;13.11;100.00;98700.91;5095374;28;20199;-56
2023/08/07 00:56:51;;;;;;;0.07;0.07;;;;;;;13.07;100.00;98710.13;5095196;28;20696;-56
2023/08/07 00:59:40;;;;;;;0.10;0.10;;;;;;;13.02;100.00;98714.09;5094314;28;20194;-56
2023/08/07 01:02:27;;;;;;;0.10;0.10;;;;;;;12.98;100.00;98708.22;5092857;28;20674;-56
2023/08/07 01:05:14;;;;;;;0.10;0.10;;;;;;;12.98;100.00;98710.88;5094142;28;20199;-57
2023/08/07 01:08:03;;;;;;;0.10;0.10;;;;;;;13.00;100.00;98721.38;5094926;28;20207;-56
2023/08/07 01:11:08;;;;;;;0.10;0.10;;;;;;;13.00;100.00;98713.41;5093706;28;20661;-57
2023/08/07 01:14:03;;;;;;;0.10;0.10;;;;;;;12.98;100.00;98710.88;5094956;28;20257;-56
2023/08/07 01:16:56;;;;;;;0.03;0.03;;;;;;;12.94;100.00;98722.72;5093624;28;20237;-56
2023/08/07 01:19:43;;;;;;;0.10;0.10;;;;;;;12.98;100.00;98723.31;5094720;28;20269;-57
2023/08/07 01:22:32;;;;;;;0.10;0.10;;;;;;;12.95;100.00;98726.22;5093679;28;20191;-56
2023/08/07 01:25:19;;;;;;;0.10;0.10;;;;;;;12.94;100.00;98722.72;5094611;28;20217;-56
2023/08/07 01:28:16;;;;;;;0.10;0.10;;;;;;;12.98;100.00;98728.63;5094583;28;20207;-57
2023/08/07 01:31:09;;;;;;;0.10;0.10;;;;;;;12.92;100.00;98729.97;5092941;28;20222;-56
2023/08/07 01:34:00;;;;;;;0.10;0.10;;;;;;;12.90;100.00;98727.44;5094422;28;20195;-57
2023/08/07 01:36:49;;;;;;;0.10;0.10;;;;;;;12.82;100.00;98724.53;5093058;28;20593;-56
2023/08/07 01:39:38;;;;;;;0.10;0.10;;;;;;;12.91;100.00;98725.63;5094361;28;20183;-56
2023/08/07 01:42:25;;;;;;;0.10;0.10;;;;;;;12.96;100.00;98736.75;5094077;28;20253;-56
2023/08/07 01:45:12;;;;;;;0.10;0.10;;;;;;;12.95;100.00;98731.56;5093327;28;20237;-56
2023/08/07 01:48:00;;;;;;;0.00;0.00;;;;;;;12.87;100.00;98733.00;5092886;28;20234;-56
2023/08/07 01:50:47;;;;;;;0.10;0.10;;;;;;;12.89;100.00;98741.69;5092737;28;20218;-56
2023/08/07 01:53:34;;;;;;;0.00;0.00;;;;;;;12.85;100.00;98736.75;5093145;28;20195;-56
2023/08/07 01:56:22;;;;;;;0.10;0.10;;;;;;;12.85;100.00;98739.41;5093914;28;20194;-56
2023/08/07 01:59:09;;;;;;;0.10;0.10;;;;;;;12.81;100.00;98736.13;5092886;28;20191;-56
2023/08/07 02:01:56;;;;;;;0.10;0.10;;;;;;;12.76;100.00;98735.69;5091706;28;20211;-56
2023/08/07 02:04:43;;;;;;;0.10;0.10;;;;;;;12.76;100.00;98735.69;5093008;28;20195;-56
2023/08/07 02:07:30;;;;;;;0.10;0.10;;;;;;;12.72;100.00;98741.34;5093683;28;20190;-57
2023/08/07 02:10:17;;;;;;;0.10;0.10;;;;;;;12.74;100.00;98734.97;5092676;28;20252;-56
2023/08/07 02:13:05;;;;;;;0.10;0.10;;;;;;;12.68;100.00;98739.91;5092865;28;20213;-56
2023/08/07 02:15:52;;;;;;;0.10;0.10;;;;;;;12.70;100.00;98741.47;5091411;28;20190;-56
2023/08/07 02:18:39;;;;;;;0.07;0.07;;;;;;;12.68;100.00;98743.41;5093623;28;20194;-56
2023/08/07 02:21:25;;;;;;;0.10;0.10;;;;;;;12.63;100.00;98748.22;5092580;28;20260;-56
2023/08/07 02:24:13;;;;;;;0.10;0.10;;;;;;;12.66;100.00;98740.03;5092460;28;20241;-56
2023/08/07 02:27:00;;;;;;;0.10;0.10;;;;;;;12.63;100.00;98747.38;5093639;28;20276;-57
2023/08/07 02:29:50;;;;;;;0.10;0.10;;;;;;;12.64;100.00;98752.56;5092497;28;20182;-56
2023/08/07 02:32:37;;;;;;;0.10;0.10;;;;;;;12.66;100.00;98744.50;5090943;28;20201;-56
2023/08/07 02:35:24;;;;;;;0.10;0.10;;;;;;;12.65;100.00;98748.13;5093113;28;20230;-56
2023/08/07 02:38:11;;;;;;;0.10;0.10;;;;;;;12.69;100.00;98749.56;5093151;28;20734;-56
2023/08/07 02:40:57;;;;;;;0.10;0.10;;;;;;;12.69;100.00;98744.25;5093152;28;20198;-56
2023/08/07 02:43:45;;;;;;;0.10;0.10;;;;;;;12.65;100.00;98751.63;5092970;28;20214;-56
2023/08/07 02:46:35;;;;;;;0.10;0.10;;;;;;;12.68;100.00;98745.22;5091767;28;20207;-56
2023/08/07 02:49:22;;;;;;;0.10;0.10;;;;;;;12.68;100.00;98748.72;5092121;28;20206;-56
2023/08/07 02:52:09;;;;;;;0.10;0.10;;;;;;;12.65;100.00;98746.31;5092809;28;20210;-56
2023/08/07 02:54:56;;;;;;;0.10;0.10;;;;;;;12.72;100.00;98750.16;5092214;28;20206;-56
2023/08/07 02:57:43;;;;;;;0.10;0.10;;;;;;;12.69;100.00;98745.09;5091941;28;20211;-56
2023/08/07 03:00:30;;;;;;;0.10;0.10;;;;;;;12.63;100.00;98753.53;5092023;28;20285;-56
2023/08/07 03:03:18;;;;;;;0.10;0.10;;;;;;;12.63;100.00;98740.25;5092841;28;20190;-57
2023/08/07 03:06:05;;;;;;;0.10;0.10;;;;;;;12.57;100.00;98748.72;5092927;28;20280;-56
2023/08/07 03:08:52;;;;;;;0.10;0.10;;;;;;;12.63;100.00;98750.03;5093018;28;20199;-56
2023/08/07 03:11:39;;;;;;;0.10;0.10;;;;;;;12.67;100.00;98744.38;5092569;28;20219;-57
2023/08/07 03:14:26;;;;;;;0.10;0.10;;;;;;;12.57;100.00;98740.75;5091805;28;20420;-56
2023/08/07 03:17:13;;;;;;;0.10;0.10;;;;;;;12.64;100.00;98741.09;5091634;28;20194;-57
2023/08/07 03:20:03;;;;;;;0.10;0.10;;;;;;;12.61;100.00;98745.69;5091867;28;20541;-56
2023/08/07 03:22:50;;;;;;;0.10;0.10;;;;;;;12.54;100.00;98735.66;5094554;28;20197;-56
2023/08/07 03:25:38;;;;;;;0.10;0.10;;;;;;;12.59;100.00;98741.47;5095905;28;20190;-56
2023/08/07 03:28:24;;;;;;;0.10;0.10;;;;;;;12.52;100.00;98743.75;5096949;28;20215;-56
2023/08/07 03:31:11;;;;;;;0.10;0.10;;;;;;;12.56;100.00;98749.69;5095394;28;20266;-56
2023/08/07 03:33:58;;;;;;;0.03;0.03;;;;;;;12.59;100.00;98752.94;5095879;28;20198;-56
2023/08/07 03:36:47;;;;;;;0.00;0.00;;;;;;;12.64;100.00;98749.06;5095338;28;20219;-56
2023/08/07 03:39:34;;;;;;;0.10;0.10;;;;;;;12.60;100.00;98753.78;5095797;28;20217;-56
2023/08/07 03:42:21;;;;;;;0.10;0.10;;;;;;;12.60;100.00;98749.31;5095735;28;20190;-56
2023/08/07 03:45:09;;;;;;;0.10;0.10;;;;;;;12.60;100.00;98765.25;5095314;28;20305;-56
2023/08/07 03:47:56;;;;;;;0.10;0.10;;;;;;;12.59;100.00;98768.88;5094108;28;20217;-56
2023/08/07 03:50:43;;;;;;;0.10;0.10;;;;;;;12.59;100.00;98758.25;5096332;28;20210;-56
2023/08/07 03:53:32;;;;;;;0.10;0.10;;;;;;;12.64;100.00;98765.00;5095519;28;20194;-56
2023/08/07 03:56:19;;;;;;;0.00;0.00;;;;;;;12.61;100.00;98758.13;5096445;28;20195;-56
2023/08/07 03:59:06;;;;;;;0.10;0.10;;;;;;;12.64;100.00;98755.22;5096323;28;20203;-57
2023/08/07 04:01:53;;;;;;;0.10;0.10;;;;;;;12.75;100.00;98759.72;5093844;28;20195;-56
2023/08/07 04:04:40;;;;;;;0.10;0.10;;;;;;;12.74;100.00;98758.00;5096242;28;20201;-57
2023/08/07 04:07:27;;;;;;;0.10;0.10;;;;;;;12.69;100.00;98754.88;5096089;28;20321;-56
2023/08/07 04:10:15;;;;;;;0.10;0.10;;;;;;;12.71;100.00;98756.44;5095142;28;20706;-56
2023/08/07 04:13:03;;;;;;;0.10;0.10;;;;;;;12.69;100.00;98753.06;5096011;28;20190;-56
2023/08/07 04:15:50;;;;;;;0.10;0.10;;;;;;;12.71;100.00;98752.94;5093618;28;20673;-56
2023/08/07 04:18:37;;;;;;;0.10;0.10;;;;;;;12.73;100.00;98751.84;5095904;28;20191;-56
2023/08/07 04:21:24;;;;;;;0.10;0.10;;;;;;;12.68;100.00;98751.38;5094980;28;20195;-56
2023/08/07 04:24:11;;;;;;;0.10;0.10;;;;;;;12.67;100.00;98749.69;5095802;28;20299;-56
2023/08/07 04:26:59;;;;;;;0.10;0.10;;;;;;;12.69;100.00;98750.41;5095758;28;20257;-56
2023/08/07 04:29:47;;;;;;;0.10;0.10;;;;;;;12.69;100.00;98753.06;5095731;28;20198;-56
2023/08/07 04:32:34;;;;;;;0.10;0.10;;;;;;;12.66;100.00;98761.28;5092948;28;20234;-56
2023/08/07 04:35:21;;;;;;;0.10;0.10;;;;;;;12.65;100.00;98759.59;5094957;28;20218;-57
2023/08/07 04:38:08;;;;;;;0.10;0.10;;;;;;;12.67;100.00;98749.69;5095422;28;20297;-56
2023/08/07 04:40:54;;;;;;;0.10;0.10;;;;;;;12.70;100.00;98749.44;5095466;28;20190;-56
2023/08/07 04:43:43;;;;;;;0.10;0.10;;;;;;;12.70;100.00;98753.91;5095326;28;20194;-56
2023/08/07 04:46:30;;;;;;;0.00;0.00;;;;;;;12.73;100.00;98759.81;5094144;28;20198;-56
2023/08/07 04:49:17;;;;;;;0.10;0.10;;;;;;;12.72;100.00;98760.78;5095447;28;20194;-56
2023/08/07 04:52:04;;;;;;;0.10;0.10;;;;;;;12.75;100.00;98762.38;5095175;28;20408;-56
2023/08/07 04:55:10;;;;;;;0.10;0.10;;;;;;;12.77;100.00;98763.09;5095212;28;20210;-56
2023/08/07 04:57:57;;;;;;;0.10;0.10;;;;;;;12.79;100.00;98767.31;5095138;28;20216;-56
2023/08/07 05:00:45;;;;;;;0.10;0.10;;;;;;;12.77;100.00;98771.06;5094712;28;20280;-56
2023/08/07 05:03:32;;;;;;;0.10;0.10;;;;;;;12.81;100.00;98761.88;5095080;28;20186;-56
2023/08/07 05:06:19;;;;;;;0.10;0.10;;;;;;;12.90;100.00;98763.78;5095159;28;20203;-56
2023/08/07 05:09:06;;;;;;;0.10;0.10;;;;;;;12.89;100.00;98765.63;5094900;28;20191;-56
2023/08/07 05:11:53;;;;;;;0.10;0.10;;;;;;;12.94;100.00;98761.75;5094704;28;20253;-56
2023/08/07 05:14:40;;;;;;;0.10;0.10;;;;;;;12.92;100.00;98761.00;5094946;28;20237;-56
2023/08/07 05:17:29;;;;;;;0.10;0.10;;;;;;;12.95;100.00;98752.81;5093046;28;20218;-56
2023/08/07 05:20:15;;;;;;;0.10;0.10;;;;;;;12.97;100.00;98756.19;5094292;28;20210;-56
2023/08/07 05:23:02;;;;;;;0.10;0.10;;;;;;;12.95;100.00;98751.00;5094709;28;20297;-56
2023/08/07 05:25:49;;;;;;;0.00;0.00;;;;;;;12.97;100.00;98750.88;5094536;28;20284;-56
2023/08/07 05:28:36;;;;;;;0.10;0.10;;;;;;;13.04;100.00;98760.91;5094611;28;20226;-56
2023/08/07 05:31:23;;;;;;;0.07;0.07;;;;;;;13.05;100.00;98757.25;5093149;28;20269;-56
2023/08/07 05:34:13;;;;;;;0.10;0.10;;;;;;;13.09;100.00;98765.81;5094336;28;20198;-56
2023/08/07 05:37:00;;;;;;;0.10;0.10;;;;;;;13.15;100.00;98757.38;5094380;28;20198;-56
2023/08/07 05:39:49;;;;;;;0.10;0.10;;;;;;;13.10;100.00;98760.38;5094334;28;20187;-56
2023/08/07 05:42:36;;;;;;;0.00;0.00;;;;;;;13.22;100.00;98750.63;5094224;28;20231;-56
2023/08/07 05:45:23;;;;;;;0.10;0.10;;;;;;;13.21;100.00;98750.72;5093904;28;20194;-56
2023/08/07 05:48:10;;;;;;;0.10;0.10;;;;;;;13.25;100.00;98755.69;5093666;28;20245;-56
2023/08/07 05:50:58;;;;;;;0.10;0.10;;;;;;;13.35;100.00;98753.97;5094227;28;20206;-56
2023/08/07 05:53:45;;;;;;;0.00;0.00;;;;;;;13.32;100.00;98756.88;5093774;28;20222;-56
2023/08/07 05:56:32;;;;;;;0.10;0.10;;;;;;;13.35;100.00;98756.63;5094029;28;20222;-56
2023/08/07 05:59:19;;;;;;;0.10;0.10;;;;;;;13.32;100.00;98753.38;5093317;28;20202;-56
2023/08/07 06:02:06;;;;;;;0.10;0.10;;;;;;;13.43;100.00;98750.69;5092423;28;20229;-56
2023/08/07 06:04:52;;;;;;;0.10;0.10;;;;;;;13.46;100.00;98761.91;5093821;28;20275;-56
2023/08/07 06:07:41;;;;;;;0.10;0.10;;;;;;;13.48;100.00;98742.31;5093885;28;20382;-56
2023/08/07 06:10:28;;;;;;;0.10;0.10;;;;;;;13.48;100.00;98752.94;5093789;28;20203;-56
2023/08/07 06:13:14;;;;;;;0.10;0.10;;;;;;;13.63;100.00;98759.66;5093458;28;20226;-56
2023/08/07 06:16:16;;;;;;;0.00;0.00;;;;;;;13.55;100.00;98762.97;5092495;28;20214;-56
2023/08/07 06:19:03;;;;;;;0.10;0.10;;;;;;;13.59;100.00;98764.38;5093559;28;20211;-56
2023/08/07 06:22:02;;;;;;;0.00;0.00;;;;;;;13.63;100.00;98765.00;5093459;28;20194;-56
2023/08/07 06:24:50;;;;;;;0.10;0.10;;;;;;;13.70;100.00;98776.78;5093569;28;20224;-56
2023/08/07 06:27:37;;;;;;;0.10;0.10;;;;;;;13.72;100.00;98770.41;5093588;28;20282;-56
2023/08/07 06:30:24;;;;;;;0.10;0.10;;;;;;;13.80;100.00;98775.09;5093348;28;20237;-56
2023/08/07 06:33:11;;;;;;;0.00;0.00;;;;;;;13.74;100.00;98764.94;5093019;28;20276;-56
2023/08/07 06:35:59;;;;;;;0.10;0.10;;;;;;;13.71;100.00;98775.84;5093068;28;20226;-56
2023/08/07 06:38:46;;;;;;;0.10;0.10;;;;;;;13.87;100.00;98772.75;5093158;28;20267;-56
2023/08/07 06:41:35;;;;;;;0.10;0.10;;;;;;;13.95;100.00;98775.59;5093433;28;20208;-56
2023/08/07 06:44:21;;;;;;;0.03;0.03;;;;;;;13.93;100.00;98770.41;5093263;28;20210;-56
2023/08/07 06:47:09;;;;;;;0.10;0.10;;;;;;;14.13;100.00;98768.72;5091749;28;20267;-56
2023/08/07 06:49:56;;;;;;;0.10;0.10;;;;;;;14.06;100.00;98766.72;5093129;28;20542;-56
2023/08/07 06:52:43;;;;;;;0.03;0.03;;;;;;;14.22;100.00;98773.28;5093028;28;20215;-56
2023/08/07 06:55:30;;;;;;;0.00;0.00;;;;;;;14.24;100.00;98770.47;5092905;28;20272;-56
2023/08/07 06:58:18;;;;;;;0.10;0.10;;;;;;;14.42;100.00;98773.41;5092741;28;20252;-56
2023/08/07 07:01:06;;;;;;;0.00;0.00;;;;;;;14.39;100.00;98771.00;5091731;28;20958;-56
2023/08/07 07:03:53;;;;;;;0.10;0.10;;;;;;;14.42;100.00;98768.06;5092920;28;20261;-56
2023/08/07 07:06:40;;;;;;;0.00;0.00;;;;;;;14.42;100.00;98768.91;5092026;28;20198;-56
2023/08/07 07:09:28;;;;;;;0.10;0.10;;;;;;;14.44;100.00;98779.44;5093123;28;20186;-56
2023/08/07 07:12:15;;;;;;;0.00;0.00;;;;;;;14.32;100.00;98784.00;5092732;28;20202;-56
2023/08/07 07:15:04;;;;;;;0.00;0.00;;;;;;;14.18;100.00;98782.50;5092953;28;20194;-56
2023/08/07 07:17:51;;;;;;;0.10;0.10;;;;;;;14.22;100.00;98794.59;5091682;28;20191;-56
2023/08/07 07:20:38;;;;;;;0.00;0.00;;;;;;;14.14;100.00;98794.38;5092863;28;20697;-56
2023/08/07 07:23:24;;;;;;;0.10;0.10;;;;;;;14.02;100.00;98798.09;5092885;28;20191;-56
2023/08/07 07:26:11;;;;;;;0.10;0.10;;;;;;;14.14;100.00;98806.88;5092783;28;20191;-55
2023/08/07 07:28:58;;;;;;;0.00;0.00;;;;;;;14.08;100.00;98802.88;5092760;28;20669;-56
2023/08/07 07:31:46;;;;;;;0.00;0.00;;;;;;;13.91;100.00;98814.13;5091535;28;20202;-56
2023/08/07 07:34:34;;;;;;;0.10;0.10;;;;;;;13.85;100.00;98828.78;5092296;28;20273;-55
2023/08/07 07:37:20;;;;;;;0.10;0.10;;;;;;;13.90;100.00;98823.94;5092808;28;20207;-56
2023/08/07 07:40:09;;;;;;;0.10;0.10;;;;;;;13.89;100.00;98832.03;5092647;28;20195;-56
2023/08/07 07:42:56;;;;;;;0.10;0.10;;;;;;;13.96;100.00;98833.22;5092804;28;20267;-56
2023/08/07 07:45:44;;;;;;;0.10;0.10;;;;;;;13.94;100.00;98830.69;5091714;28;20194;-55
2023/08/07 07:48:33;;;;;;;0.10;0.10;;;;;;;14.06;100.00;98836.78;5092671;28;20421;-56
2023/08/07 07:51:19;;;;;;;0.00;0.00;;;;;;;14.02;100.00;98843.38;5092652;28;20206;-56
2023/08/07 07:54:06;;;;;;;0.00;0.00;;;;;;;13.95;100.00;98844.84;5092397;28;20214;-56
2023/08/07 07:57:00;;;;;;;0.00;0.00;;;;;;;14.01;100.00;98853.16;5092718;28;20190;-56
2023/08/07 07:59:48;;;;;;;0.10;0.10;;;;;;;14.01;100.00;98850.50;5092599;28;20187;-56
2023/08/07 08:02:35;;;;;;;0.03;0.03;;;;;;;13.99;100.00;98851.59;5091259;28;20257;-56
2023/08/07 08:05:23;;;;;;;0.10;0.10;;;;;;;14.01;100.00;98860.31;5092507;28;20379;-56
2023/08/07 08:08:11;;;;;;;0.10;0.10;;;;;;;14.14;100.00;98863.63;5093992;28;20191;-56
2023/08/07 08:10:58;;;;;;;0.10;0.10;;;;;;;14.13;100.00;98867.28;5095292;28;20195;-56
2023/08/07 08:13:47;;;;;;;0.10;0.10;;;;;;;13.96;100.00;98868.66;5095938;28;20215;-56
2023/08/07 08:16:35;;;;;;;0.10;0.10;;;;;;;13.98;100.00;98881.84;5094709;28;20298;-57
2023/08/07 08:19:22;;;;;;;0.10;0.10;;;;;;;14.01;100.00;98885.13;5095596;28;20199;-56
2023/08/07 08:22:10;;;;;;;0.00;0.00;;;;;;;14.03;100.00;98887.66;5095965;28;20200;-56
2023/08/07 08:24:57;;;;;;;0.10;0.10;;;;;;;13.88;100.00;98900.41;5095867;28;20195;-56
2023/08/07 08:27:45;;;;;;;0.07;0.07;;;;;;;13.59;100.00;98896.59;5095928;28;20229;-56
2023/08/07 08:30:32;;;;;;;0.10;0.10;;;;;;;13.48;100.00;98907.25;5095853;28;20198;-56
2023/08/07 08:33:19;;;;;;;0.10;0.10;;;;;;;13.45;100.00;98908.34;5095651;28;20210;-57
2023/08/07 08:36:06;;;;;;;0.10;0.10;;;;;;;13.32;100.00;98911.16;5095454;28;20272;-56
2023/08/07 08:38:54;;;;;;;0.07;0.07;;;;;;;13.32;100.00;98918.28;5095730;28;20199;-56
2023/08/07 08:41:47;;;;;;;0.10;0.10;;;;;;;13.41;100.00;98920.19;5095561;28;20269;-56
2023/08/07 08:44:39;;;;;;;0.10;0.10;;;;;;;13.41;100.00;98925.53;5095586;28;20191;-56
2023/08/07 08:47:27;;;;;;;0.10;0.10;;;;;;;13.48;100.00;98932.06;5094226;28;20297;-56
2023/08/07 08:50:15;;;;;;;0.10;0.10;;;;;;;13.53;100.00;98932.53;5095258;28;20272;-57
2023/08/07 08:53:03;;;;;;;0.10;0.10;;;;;;;13.67;100.00;98937.59;5095269;28;20198;-56
2023/08/07 08:55:53;;;;;;;0.00;0.00;;;;;;;13.75;100.00;98945.81;5095383;28;20681;-57
2023/08/07 08:58:41;;;;;;;0.10;0.10;;;;;;;13.77;100.00;98943.03;5095256;28;20198;-56
2023/08/07 09:01:28;;;;;;;0.10;0.10;;;;;;;13.80;100.00;98944.59;5093906;28;20229;-56
2023/08/07 09:04:16;;;;;;;0.10;0.10;;;;;;;13.90;100.00;98941.09;5095116;28;20183;-57
2023/08/07 09:07:02;;;;;;;0.10;0.10;;;;;;;13.87;100.00;98949.31;5093866;28;20199;-56
2023/08/07 09:09:50;;;;;;;0.10;0.10;;;;;;;13.90;100.00;98941.09;5093490;28;20190;-56
2023/08/07 09:12:41;;;;;;;0.00;0.00;;;;;;;13.97;100.00;98947.59;5094483;28;20256;-56
2023/08/07 09:15:31;;;;;;;0.10;0.10;;;;;;;13.92;100.00;98949.78;5094946;28;20240;-56
2023/08/07 09:18:18;;;;;;;0.10;0.10;;;;;;;13.95;100.00;98951.34;5094898;28;20317;-56
2023/08/07 09:21:05;;;;;;;0.10;0.10;;;;;;;13.81;100.00;98948.97;5094213;28;20233;-56
2023/08/07 09:23:52;;;;;;;0.10;0.10;;;;;;;13.88;100.00;98956.31;5094719;28;20210;-56
2023/08/07 09:26:43;;;;;;;0.10;0.10;;;;;;;13.92;100.00;98960.44;5094742;28;20198;-56
2023/08/07 09:29:32;;;;;;;0.00;0.00;;;;;;;14.01;100.00;98965.03;5094685;28;20272;-56
2023/08/07 09:32:22;;;;;;;0.10;0.10;;;;;;;14.10;100.00;98962.59;5093268;28;20207;-57
2023/08/07 09:35:10;;;;;;;0.10;0.10;;;;;;;14.19;100.00;98960.00;5094190;28;20231;-56
2023/08/07 09:37:57;;;;;;;0.10;0.10;;;;;;;14.26;100.00;98955.84;5094507;28;20289;-56
2023/08/07 09:40:44;;;;;;;0.10;0.10;;;;;;;14.28;100.00;98955.72;5094477;28;20216;-56
2023/08/07 09:43:35;;;;;;;0.10;0.10;;;;;;;14.33;100.00;98946.38;5094186;28;20203;-56
2023/08/07 09:46:23;;;;;;;0.00;0.00;;;;;;;14.40;100.00;98952.06;5092654;28;20206;-56
2023/08/07 09:49:09;;;;;;;0.10;0.10;;;;;;;14.50;100.00;98955.69;5094317;28;20198;-56
2023/08/07 09:51:56;;;;;;;0.10;0.10;;;;;;;14.58;100.00;98950.56;5094460;28;20194;-56
2023/08/07 09:54:43;;;;;;;0.10;0.10;;;;;;;14.55;100.00;98968.59;5093866;28;20697;-56
2023/08/07 09:57:31;;;;;;;0.10;0.10;;;;;;;14.60;100.00;98958.44;5094195;28;20195;-56
2023/08/07 10:00:19;;;;;;;0.10;0.10;;;;;;;14.79;100.00;98957.72;5094036;28;20199;-56
2023/08/07 10:03:09;;;;;;;0.00;0.00;;;;;;;15.17;100.00;98960.63;5094010;28;20188;-56
2023/08/07 10:05:56;;;;;;;0.10;0.10;;;;;;;15.27;100.00;98950.00;5094007;28;20199;-57
2023/08/07 10:08:45;;;;;;;0.07;0.07;;;;;;;15.09;100.00;98936.44;5093888;28;20195;-56
2023/08/07 10:11:33;;;;;;;0.10;0.10;;;;;;;15.30;100.00;98947.06;5093722;28;20318;-57
2023/08/07 10:14:19;;;;;;;0.10;0.10;;;;;;;15.63;100.00;98948.66;5093664;28;20211;-56
2023/08/07 10:17:08;;;;;;;0.00;0.00;;;;;;;15.67;100.00;98954.56;5092425;28;20191;-56
2023/08/07 10:19:57;;;;;;;0.00;0.00;;;;;;;15.51;100.00;98948.84;5093592;28;20195;-56
2023/08/07 10:22:45;;;;;;;0.10;0.10;;;;;;;15.42;100.00;98946.00;5093755;28;20199;-56
2023/08/07 10:25:33;;;;;;;0.00;0.00;;;;;;;15.67;100.00;98938.53;5093543;28;20198;-57
2023/08/07 10:28:20;;;;;;;0.10;0.10;;;;;;;15.74;100.00;98935.19;5093414;28;20201;-56
2023/08/07 10:31:08;;;;;;;0.10;0.10;;;;;;;15.62;100.00;98956.78;5091590;28;20191;-56
2023/08/07 10:33:55;;;;;;;0.10;0.10;;;;;;;15.56;100.00;98954.63;5093333;28;20211;-56
2023/08/07 10:36:43;;;;;;;0.10;0.10;;;;;;;15.65;100.00;98951.19;5092946;28;20242;-56
2023/08/07 10:39:30;;;;;;;0.10;0.10;;;;;;;15.64;100.00;98953.00;5093353;28;20198;-56
2023/08/07 10:42:17;;;;;;;0.10;0.10;;;;;;;15.63;100.00;98956.66;5093403;28;20202;-56
2023/08/07 10:45:06;;;;;;;0.10;0.10;;;;;;;15.78;100.00;98956.28;5093372;28;20190;-56
2023/08/07 10:48:06;;;;;;;0.10;0.10;;;;;;;15.77;100.00;98955.44;5092040;28;20202;-56
2023/08/07 10:50:59;;;;;;;0.00;0.00;;;;;;;16.01;100.00;98958.56;5093367;28;20203;-56
2023/08/07 10:53:51;;;;;;;0.10;0.10;;;;;;;16.19;100.00;98947.22;5093260;28;20199;-56
2023/08/07 10:56:38;;;;;;;0.10;0.10;;;;;;;16.24;100.00;98942.31;5093286;28;20190;-56
2023/08/07 10:59:25;;;;;;;0.10;0.10;;;;;;;16.51;100.00;98928.25;5093231;28;20198;-56
2023/08/07 11:02:13;;;;;;;0.00;0.00;;;;;;;16.51;100.00;98936.28;5091738;28;20218;-56
2023/08/07 11:05:00;;;;;;;0.10;0.10;;;;;;;16.41;100.00;98946.13;5093092;28;20191;-56
2023/08/07 11:07:47;;;;;;;0.10;0.10;;;;;;;16.94;100.00;98943.00;5092910;28;20194;-56
2023/08/07 11:10:36;;;;;;;0.10;0.10;;;;;;;16.83;100.00;98941.34;5093068;28;20198;-56
2023/08/07 11:13:22;;;;;;;0.00;0.00;;;;;;;17.05;100.00;98946.34;5091987;28;20275;-56
2023/08/07 11:16:10;;;;;;;0.00;0.00;;;;;;;17.08;100.00;98940.75;5091317;28;20697;-56
2023/08/07 11:18:58;;;;;;;0.10;0.10;;;;;;;16.90;100.00;98938.94;5093098;28;20190;-56
2023/08/07 11:21:44;;;;;;;0.10;0.10;;;;;;;16.67;100.00;98941.03;5092800;28;20225;-56
2023/08/07 11:24:31;;;;;;;0.10;0.10;;;;;;;16.48;100.00;98945.41;5092629;28;20190;-56
2023/08/07 11:27:22;;;;;;;0.10;0.10;;;;;;;16.46;100.00;98952.72;5092905;28;20191;-56
2023/08/07 11:30:12;;;;;;;0.00;0.00;;;;;;;16.62;100.00;98954.00;5092834;28;20728;-56
2023/08/07 11:32:59;;;;;;;0.10;0.10;;;;;;;16.87;100.00;98951.59;5091835;28;20249;-56
2023/08/07 11:35:48;;;;;;;0.07;0.07;;;;;;;16.98;100.00;98966.66;5092482;28;20222;-56
2023/08/07 11:38:38;;;;;;;0.10;0.10;;;;;;;17.00;100.00;98951.31;5092712;28;20202;-56
2023/08/07 11:41:25;;;;;;;0.10;0.10;;;;;;;17.32;100.00;98955.44;5092718;28;20195;-56
2023/08/07 11:44:13;;;;;;;0.10;0.10;;;;;;;17.39;100.00;98951.22;5095802;28;20194;-56
2023/08/07 11:47:00;;;;;;;0.10;0.10;;;;;;;17.90;100.00;98956.06;5095264;28;20241;-56
2023/08/07 11:49:48;;;;;;;0.00;0.00;;;;;;;18.87;100.00;98939.28;5096566;28;20251;-56
2023/08/07 11:52:35;;;;;;;0.10;0.10;;;;;;;20.76;100.00;98938.03;5096633;28;20265;-56
2023/08/07 11:55:24;;;;;;;0.00;0.00;;;;;;;22.85;100.00;98941.06;5096279;28;20226;-57
2023/08/07 11:58:12;;;;;;;0.03;0.03;;;;;;;23.55;99.73;98931.78;5096462;28;20265;-57
2023/08/07 12:01:04;;;;;;;0.00;0.00;;;;;;;23.25;96.44;98927.34;5094825;28;20210;-56
2023/08/07 12:03:55;;;;;;;0.00;0.00;;;;;;;22.65;99.30;98934.47;5096365;28;20199;-57
2023/08/07 12:06:54;;;;;;;0.05;0.05;;;;;;;20.71;100.00;98926.06;5096254;28;20272;-57
2023/08/07 12:09:42;;;;;;;0.10;0.10;;;;;;;19.65;100.00;98937.41;5096288;28;20199;-57
2023/08/07 12:12:34;;;;;;;0.10;0.10;;;;;;;18.62;100.00;98946.22;5095808;28;20292;-56
2023/08/07 12:15:21;;;;;;;0.10;0.10;;;;;;;18.76;100.00;98964.50;5095950;28;20265;-56
2023/08/07 12:18:11;;;;;;;0.00;0.00;;;;;;;18.07;100.00;98958.94;5096154;28;20194;-56
2023/08/07 12:21:00;;;;;;;0.00;0.00;;;;;;;17.90;100.00;98948.03;5095889;28;20245;-56
2023/08/07 12:23:47;;;;;;;0.10;0.10;;;;;;;19.31;100.00;98952.66;5096124;28;20253;-56
2023/08/07 12:26:34;;;;;;;0.10;0.10;;;;;;;19.12;100.00;98951.03;5095988;28;20195;-56
2023/08/07 12:29:21;;;;;;;0.00;0.00;;;;;;;18.58;100.00;98967.16;5095951;28;20203;-56
2023/08/07 12:32:09;;;;;;;0.10;0.10;;;;;;;17.57;100.00;98972.72;5094333;28;20199;-56
2023/08/07 12:34:57;;;;;;;0.07;0.07;;;;;;;17.48;100.00;98987.81;5095506;28;20336;-57
2023/08/07 12:37:46;;;;;;;0.10;0.10;;;;;;;19.62;100.00;98982.59;5095745;28;20673;-57
2023/08/07 12:40:35;;;;;;;0.00;0.00;;;;;;;22.12;100.00;98973.97;5095743;28;20222;-57
2023/08/07 12:43:22;;;;;;;0.10;0.10;;;;;;;23.82;98.47;98978.13;5095661;28;20190;-57
2023/08/07 12:46:09;;;;;;;0.08;0.08;;;;;;;22.17;99.37;98968.00;5094158;28;20240;-57
2023/08/07 12:48:59;;;;;;;0.00;0.00;;;;;;;21.39;100.00;98966.94;5095555;28;20199;-57
2023/08/07 12:51:47;;;;;;;0.00;0.00;;;;;;;22.79;100.00;98966.09;5095510;28;20207;-57
2023/08/07 12:54:34;;;;;;;0.00;0.00;;;;;;;23.08;100.00;98975.34;5094388;28;20195;-56
2023/08/07 12:57:21;;;;;;;0.00;0.00;;;;;;;23.40;87.44;98957.97;5094320;28;20191;-57
2023/08/07 13:00:14;;;;;;;0.00;0.00;;;;;;;24.30;75.45;98960.41;5095199;28;20195;-57